sensor_id;sensor_type;location;lat;lon;timestamp;P1;durP1;ratioP1;P2;durP2;ratioP2
21733;SDS011;11029;47.820;10.534;2024-01-15T00:01:41;5.72;;;2.88;;
21733;SDS011;11029;47.820;10.534;2024-01-15T00:04:29;3.35;;;2.60;;
21733;SDS011;11029;47.820;10.534;2024-01-15T00:07:15;4.57;;;2.65;;
21733;SDS011;11029;47.820;10.534;2024-01-15T00:10:01;3.38;;;2.42;;
21733;SDS011;11029;47.820;10.534;2024-01-15T00:12:47;4.78;;;2.45;;
21733;SDS011;11029;47.820;10.534;2024-01-15T00:15:33;3.78;;;2.20;;
21733;SDS011;11029;47.820;10.534;2024-01-15T00:18:19;5.15;;;2.63;;
21733;SDS011;11029;47.820;10.534;2024-01-15T00:21:04;3.13;;;2.53;;
21733;SDS011;11029;47.820;10.534;2024-01-15T00:23:51;3.17;;;2.40;;
21733;SDS011;11029;47.820;10.534;2024-01-15T00:26:37;4.32;;;2.58;;
21733;SDS011;11029;47.820;10.534;2024-01-15T00:29:22;4.07;;;2.17;;
21733;SDS011;11029;47.820;10.534;2024-01-15T00:32:08;5.35;;;2.75;;
21733;SDS011;11029;47.820;10.534;2024-01-15T00:34:53;3.70;;;2.60;;
21733;SDS011;11029;47.820;10.534;2024-01-15T00:37:39;3.80;;;2.67;;
21733;SDS011;11029;47.820;10.534;2024-01-15T00:40:25;4.60;;;2.50;;
21733;SDS011;11029;47.820;10.534;2024-01-15T00:43:11;3.35;;;2.42;;
21733;SDS011;11029;47.820;10.534;2024-01-15T00:45:56;3.20;;;2.28;;
21733;SDS011;11029;47.820;10.534;2024-01-15T00:48:42;3.78;;;2.40;;
21733;SDS011;11029;47.820;10.534;2024-01-15T00:51:28;4.78;;;2.55;;
21733;SDS011;11029;47.820;10.534;2024-01-15T00:54:14;4.95;;;2.85;;
21733;SDS011;11029;47.820;10.534;2024-01-15T00:57:00;3.00;;;2.40;;
21733;SDS011;11029;47.820;10.534;2024-01-15T00:59:46;6.25;;;3.65;;
21733;SDS011;11029;47.820;10.534;2024-01-15T01:02:32;4.07;;;3.08;;
21733;SDS011;11029;47.820;10.534;2024-01-15T01:05:18;8.45;;;4.10;;
21733;SDS011;11029;47.820;10.534;2024-01-15T01:08:03;4.82;;;3.63;;
21733;SDS011;11029;47.820;10.534;2024-01-15T01:10:49;7.50;;;4.35;;
21733;SDS011;11029;47.820;10.534;2024-01-15T01:13:35;11.23;;;4.35;;
21733;SDS011;11029;47.820;10.534;2024-01-15T01:16:20;10.77;;;5.20;;
21733;SDS011;11029;47.820;10.534;2024-01-15T01:19:06;9.50;;;5.00;;
21733;SDS011;11029;47.820;10.534;2024-01-15T01:21:52;9.00;;;4.85;;
21733;SDS011;11029;47.820;10.534;2024-01-15T01:24:38;11.30;;;5.57;;
21733;SDS011;11029;47.820;10.534;2024-01-15T01:27:24;12.57;;;6.13;;
21733;SDS011;11029;47.820;10.534;2024-01-15T01:30:09;13.40;;;6.90;;
21733;SDS011;11029;47.820;10.534;2024-01-15T01:32:55;12.13;;;5.68;;
21733;SDS011;11029;47.820;10.534;2024-01-15T01:35:40;15.57;;;6.47;;
21733;SDS011;11029;47.820;10.534;2024-01-15T01:38:26;12.10;;;6.35;;
21733;SDS011;11029;47.820;10.534;2024-01-15T01:41:11;14.50;;;6.45;;
21733;SDS011;11029;47.820;10.534;2024-01-15T01:43:57;13.10;;;6.47;;
21733;SDS011;11029;47.820;10.534;2024-01-15T01:46:42;12.95;;;6.03;;
21733;SDS011;11029;47.820;10.534;2024-01-15T01:49:28;12.10;;;5.60;;
21733;SDS011;11029;47.820;10.534;2024-01-15T01:52:14;12.23;;;5.97;;
21733;SDS011;11029;47.820;10.534;2024-01-15T01:55:00;10.50;;;5.63;;
21733;SDS011;11029;47.820;10.534;2024-01-15T01:57:48;10.15;;;4.97;;
21733;SDS011;11029;47.820;10.534;2024-01-15T02:00:34;9.32;;;4.75;;
21733;SDS011;11029;47.820;10.534;2024-01-15T02:03:21;12.82;;;5.82;;
21733;SDS011;11029;47.820;10.534;2024-01-15T02:06:07;14.00;;;6.05;;
21733;SDS011;11029;47.820;10.534;2024-01-15T02:08:53;12.63;;;5.28;;
21733;SDS011;11029;47.820;10.534;2024-01-15T02:11:40;10.32;;;4.97;;
21733;SDS011;11029;47.820;10.534;2024-01-15T02:14:27;12.55;;;5.57;;
21733;SDS011;11029;47.820;10.534;2024-01-15T02:17:12;11.68;;;5.30;;
21733;SDS011;11029;47.820;10.534;2024-01-15T02:19:58;12.98;;;6.85;;
21733;SDS011;11029;47.820;10.534;2024-01-15T02:22:43;16.05;;;7.82;;
21733;SDS011;11029;47.820;10.534;2024-01-15T02:25:29;13.18;;;6.63;;
21733;SDS011;11029;47.820;10.534;2024-01-15T02:28:15;14.63;;;7.15;;
21733;SDS011;11029;47.820;10.534;2024-01-15T02:31:03;15.68;;;7.90;;
21733;SDS011;11029;47.820;10.534;2024-01-15T02:33:49;13.32;;;7.13;;
21733;SDS011;11029;47.820;10.534;2024-01-15T02:36:35;15.57;;;7.72;;
21733;SDS011;11029;47.820;10.534;2024-01-15T02:39:22;14.98;;;7.40;;
21733;SDS011;11029;47.820;10.534;2024-01-15T02:42:08;13.65;;;7.00;;
21733;SDS011;11029;47.820;10.534;2024-01-15T02:44:53;12.50;;;7.03;;
21733;SDS011;11029;47.820;10.534;2024-01-15T02:47:39;12.63;;;7.38;;
21733;SDS011;11029;47.820;10.534;2024-01-15T02:50:24;14.48;;;7.22;;
21733;SDS011;11029;47.820;10.534;2024-01-15T02:53:10;13.73;;;8.15;;
21733;SDS011;11029;47.820;10.534;2024-01-15T02:55:55;12.55;;;6.60;;
21733;SDS011;11029;47.820;10.534;2024-01-15T02:58:41;15.25;;;6.78;;
21733;SDS011;11029;47.820;10.534;2024-01-15T03:01:26;14.10;;;6.70;;
21733;SDS011;11029;47.820;10.534;2024-01-15T03:04:12;12.55;;;6.45;;
21733;SDS011;11029;47.820;10.534;2024-01-15T03:06:58;11.85;;;6.22;;
21733;SDS011;11029;47.820;10.534;2024-01-15T03:09:44;14.63;;;6.80;;
21733;SDS011;11029;47.820;10.534;2024-01-15T03:12:30;12.13;;;6.60;;
21733;SDS011;11029;47.820;10.534;2024-01-15T03:15:15;15.98;;;6.55;;
21733;SDS011;11029;47.820;10.534;2024-01-15T03:18:01;11.65;;;6.18;;
21733;SDS011;11029;47.820;10.534;2024-01-15T03:20:46;14.48;;;6.90;;
21733;SDS011;11029;47.820;10.534;2024-01-15T03:23:32;10.98;;;5.60;;
21733;SDS011;11029;47.820;10.534;2024-01-15T03:26:17;13.40;;;5.70;;
21733;SDS011;11029;47.820;10.534;2024-01-15T03:29:03;15.73;;;6.15;;
21733;SDS011;11029;47.820;10.534;2024-01-15T03:31:48;10.43;;;5.43;;
21733;SDS011;11029;47.820;10.534;2024-01-15T03:34:34;10.35;;;5.55;;
21733;SDS011;11029;47.820;10.534;2024-01-15T03:37:19;11.40;;;5.20;;
21733;SDS011;11029;47.820;10.534;2024-01-15T03:40:05;10.70;;;4.55;;
21733;SDS011;11029;47.820;10.534;2024-01-15T03:42:52;9.93;;;4.35;;
21733;SDS011;11029;47.820;10.534;2024-01-15T03:45:38;8.57;;;4.55;;
21733;SDS011;11029;47.820;10.534;2024-01-15T03:48:24;9.30;;;4.78;;
21733;SDS011;11029;47.820;10.534;2024-01-15T03:51:10;8.60;;;4.22;;
21733;SDS011;11029;47.820;10.534;2024-01-15T03:53:55;10.77;;;4.55;;
21733;SDS011;11029;47.820;10.534;2024-01-15T03:56:42;12.00;;;4.47;;
21733;SDS011;11029;47.820;10.534;2024-01-15T03:59:27;9.02;;;4.30;;
21733;SDS011;11029;47.820;10.534;2024-01-15T04:02:13;9.10;;;4.47;;
21733;SDS011;11029;47.820;10.534;2024-01-15T04:04:59;9.90;;;4.80;;
21733;SDS011;11029;47.820;10.534;2024-01-15T04:07:45;9.35;;;4.55;;
21733;SDS011;11029;47.820;10.534;2024-01-15T04:10:30;10.60;;;4.80;;
21733;SDS011;11029;47.820;10.534;2024-01-15T04:13:16;13.80;;;4.63;;
21733;SDS011;11029;47.820;10.534;2024-01-15T04:16:01;9.13;;;4.68;;
21733;SDS011;11029;47.820;10.534;2024-01-15T04:18:48;7.00;;;3.83;;
21733;SDS011;11029;47.820;10.534;2024-01-15T04:21:34;9.82;;;5.07;;
21733;SDS011;11029;47.820;10.534;2024-01-15T04:24:20;10.20;;;4.47;;
21733;SDS011;11029;47.820;10.534;2024-01-15T04:27:06;9.07;;;4.10;;
21733;SDS011;11029;47.820;10.534;2024-01-15T04:29:52;9.63;;;5.18;;
21733;SDS011;11029;47.820;10.534;2024-01-15T04:32:38;11.23;;;6.15;;
21733;SDS011;11029;47.820;10.534;2024-01-15T04:35:23;18.50;;;9.95;;
21733;SDS011;11029;47.820;10.534;2024-01-15T04:38:09;8.77;;;4.72;;
21733;SDS011;11029;47.820;10.534;2024-01-15T04:40:54;8.13;;;4.85;;
21733;SDS011;11029;47.820;10.534;2024-01-15T04:43:42;10.07;;;5.10;;
21733;SDS011;11029;47.820;10.534;2024-01-15T04:46:28;10.77;;;5.18;;
21733;SDS011;11029;47.820;10.534;2024-01-15T04:49:14;7.75;;;4.30;;
21733;SDS011;11029;47.820;10.534;2024-01-15T04:52:00;10.32;;;4.47;;
21733;SDS011;11029;47.820;10.534;2024-01-15T04:54:45;7.82;;;4.70;;
21733;SDS011;11029;47.820;10.534;2024-01-15T04:57:31;8.93;;;4.60;;
21733;SDS011;11029;47.820;10.534;2024-01-15T05:00:17;9.50;;;4.47;;
21733;SDS011;11029;47.820;10.534;2024-01-15T05:03:03;8.77;;;4.50;;
21733;SDS011;11029;47.820;10.534;2024-01-15T05:05:49;9.52;;;4.43;;
21733;SDS011;11029;47.820;10.534;2024-01-15T05:08:35;11.70;;;4.60;;
21733;SDS011;11029;47.820;10.534;2024-01-15T05:11:21;10.27;;;4.68;;
21733;SDS011;11029;47.820;10.534;2024-01-15T05:14:06;10.80;;;4.63;;
21733;SDS011;11029;47.820;10.534;2024-01-15T05:16:52;10.27;;;4.50;;
21733;SDS011;11029;47.820;10.534;2024-01-15T05:19:37;8.55;;;4.55;;
21733;SDS011;11029;47.820;10.534;2024-01-15T05:22:23;9.43;;;4.82;;
21733;SDS011;11029;47.820;10.534;2024-01-15T05:25:10;7.88;;;4.40;;
21733;SDS011;11029;47.820;10.534;2024-01-15T05:27:56;8.20;;;4.55;;
21733;SDS011;11029;47.820;10.534;2024-01-15T05:30:42;9.52;;;4.45;;
21733;SDS011;11029;47.820;10.534;2024-01-15T05:33:28;9.68;;;4.57;;
21733;SDS011;11029;47.820;10.534;2024-01-15T05:36:14;8.07;;;4.20;;
21733;SDS011;11029;47.820;10.534;2024-01-15T05:38:59;9.90;;;4.78;;
21733;SDS011;11029;47.820;10.534;2024-01-15T05:41:45;10.05;;;4.65;;
21733;SDS011;11029;47.820;10.534;2024-01-15T05:44:30;11.32;;;4.90;;
21733;SDS011;11029;47.820;10.534;2024-01-15T05:47:16;7.80;;;4.50;;
21733;SDS011;11029;47.820;10.534;2024-01-15T05:50:02;7.80;;;4.05;;
21733;SDS011;11029;47.820;10.534;2024-01-15T05:52:48;7.20;;;4.13;;
21733;SDS011;11029;47.820;10.534;2024-01-15T05:55:35;8.48;;;4.40;;
21733;SDS011;11029;47.820;10.534;2024-01-15T05:58:22;8.32;;;4.47;;
21733;SDS011;11029;47.820;10.534;2024-01-15T06:01:07;8.98;;;4.15;;
21733;SDS011;11029;47.820;10.534;2024-01-15T06:03:53;10.23;;;4.88;;
21733;SDS011;11029;47.820;10.534;2024-01-15T06:06:39;9.35;;;4.30;;
21733;SDS011;11029;47.820;10.534;2024-01-15T06:09:25;7.63;;;3.90;;
21733;SDS011;11029;47.820;10.534;2024-01-15T06:12:10;6.72;;;3.72;;
21733;SDS011;11029;47.820;10.534;2024-01-15T06:14:56;8.20;;;3.92;;
21733;SDS011;11029;47.820;10.534;2024-01-15T06:17:42;6.90;;;3.83;;
21733;SDS011;11029;47.820;10.534;2024-01-15T06:20:27;7.50;;;3.85;;
21733;SDS011;11029;47.820;10.534;2024-01-15T06:23:13;9.05;;;4.13;;
21733;SDS011;11029;47.820;10.534;2024-01-15T06:26:00;7.75;;;3.65;;
21733;SDS011;11029;47.820;10.534;2024-01-15T06:28:48;7.00;;;4.10;;
21733;SDS011;11029;47.820;10.534;2024-01-15T06:31:34;5.68;;;3.40;;
21733;SDS011;11029;47.820;10.534;2024-01-15T06:34:20;6.57;;;3.72;;
21733;SDS011;11029;47.820;10.534;2024-01-15T06:37:06;9.63;;;3.90;;
21733;SDS011;11029;47.820;10.534;2024-01-15T06:39:52;8.13;;;3.72;;
21733;SDS011;11029;47.820;10.534;2024-01-15T06:42:38;7.90;;;3.40;;
21733;SDS011;11029;47.820;10.534;2024-01-15T06:45:24;5.78;;;3.38;;
21733;SDS011;11029;47.820;10.534;2024-01-15T06:48:10;5.97;;;3.65;;
21733;SDS011;11029;47.820;10.534;2024-01-15T06:50:59;7.15;;;3.72;;
21733;SDS011;11029;47.820;10.534;2024-01-15T06:53:44;6.05;;;3.33;;
21733;SDS011;11029;47.820;10.534;2024-01-15T06:56:30;7.63;;;3.50;;
21733;SDS011;11029;47.820;10.534;2024-01-15T06:59:17;6.97;;;3.83;;
21733;SDS011;11029;47.820;10.534;2024-01-15T07:02:04;7.32;;;3.40;;
21733;SDS011;11029;47.820;10.534;2024-01-15T07:04:50;7.07;;;4.03;;
21733;SDS011;11029;47.820;10.534;2024-01-15T07:07:36;7.10;;;3.60;;
21733;SDS011;11029;47.820;10.534;2024-01-15T07:10:21;7.78;;;4.10;;
21733;SDS011;11029;47.820;10.534;2024-01-15T07:13:08;7.30;;;3.72;;
21733;SDS011;11029;47.820;10.534;2024-01-15T07:15:53;6.53;;;3.67;;
21733;SDS011;11029;47.820;10.534;2024-01-15T07:18:39;5.63;;;3.33;;
21733;SDS011;11029;47.820;10.534;2024-01-15T07:21:25;6.95;;;4.00;;
21733;SDS011;11029;47.820;10.534;2024-01-15T07:24:11;6.43;;;4.05;;
21733;SDS011;11029;47.820;10.534;2024-01-15T07:26:57;11.35;;;4.57;;
21733;SDS011;11029;47.820;10.534;2024-01-15T07:29:42;9.85;;;4.40;;
21733;SDS011;11029;47.820;10.534;2024-01-15T07:32:29;5.90;;;3.90;;
21733;SDS011;11029;47.820;10.534;2024-01-15T07:35:16;6.28;;;3.42;;
21733;SDS011;11029;47.820;10.534;2024-01-15T07:38:02;9.05;;;3.85;;
21733;SDS011;11029;47.820;10.534;2024-01-15T07:40:49;9.43;;;4.43;;
21733;SDS011;11029;47.820;10.534;2024-01-15T07:43:34;9.43;;;4.78;;
21733;SDS011;11029;47.820;10.534;2024-01-15T07:46:20;8.52;;;4.47;;
21733;SDS011;11029;47.820;10.534;2024-01-15T07:49:05;8.20;;;4.28;;
21733;SDS011;11029;47.820;10.534;2024-01-15T07:51:51;8.63;;;3.70;;
21733;SDS011;11029;47.820;10.534;2024-01-15T07:54:37;11.13;;;4.57;;
21733;SDS011;11029;47.820;10.534;2024-01-15T07:57:23;6.55;;;3.45;;
21733;SDS011;11029;47.820;10.534;2024-01-15T08:00:09;8.35;;;3.15;;
21733;SDS011;11029;47.820;10.534;2024-01-15T08:02:56;6.88;;;3.53;;
21733;SDS011;11029;47.820;10.534;2024-01-15T08:05:41;7.05;;;3.45;;
21733;SDS011;11029;47.820;10.534;2024-01-15T08:08:27;6.30;;;3.28;;
21733;SDS011;11029;47.820;10.534;2024-01-15T08:11:12;5.88;;;3.00;;
21733;SDS011;11029;47.820;10.534;2024-01-15T08:13:58;8.98;;;3.42;;
21733;SDS011;11029;47.820;10.534;2024-01-15T08:16:43;7.25;;;3.22;;
21733;SDS011;11029;47.820;10.534;2024-01-15T08:19:29;4.20;;;2.55;;
21733;SDS011;11029;47.820;10.534;2024-01-15T08:22:15;6.15;;;3.10;;
21733;SDS011;11029;47.820;10.534;2024-01-15T08:25:01;4.32;;;2.65;;
21733;SDS011;11029;47.820;10.534;2024-01-15T08:27:47;6.15;;;2.90;;
21733;SDS011;11029;47.820;10.534;2024-01-15T08:30:33;6.07;;;2.90;;
21733;SDS011;11029;47.820;10.534;2024-01-15T08:33:19;5.60;;;3.40;;
21733;SDS011;11029;47.820;10.534;2024-01-15T08:36:06;6.25;;;3.15;;
21733;SDS011;11029;47.820;10.534;2024-01-15T08:38:52;4.97;;;2.65;;
21733;SDS011;11029;47.820;10.534;2024-01-15T08:41:38;6.35;;;3.03;;
21733;SDS011;11029;47.820;10.534;2024-01-15T08:44:23;5.15;;;2.90;;
21733;SDS011;11029;47.820;10.534;2024-01-15T08:47:09;5.65;;;2.95;;
21733;SDS011;11029;47.820;10.534;2024-01-15T08:49:55;5.43;;;3.30;;
21733;SDS011;11029;47.820;10.534;2024-01-15T08:52:40;6.30;;;2.83;;
21733;SDS011;11029;47.820;10.534;2024-01-15T08:55:26;7.05;;;2.97;;
21733;SDS011;11029;47.820;10.534;2024-01-15T08:58:12;4.93;;;2.92;;
21733;SDS011;11029;47.820;10.534;2024-01-15T09:00:57;6.05;;;2.63;;
21733;SDS011;11029;47.820;10.534;2024-01-15T09:03:43;5.57;;;3.03;;
21733;SDS011;11029;47.820;10.534;2024-01-15T09:06:29;6.57;;;3.13;;
21733;SDS011;11029;47.820;10.534;2024-01-15T09:09:14;7.55;;;3.38;;
21733;SDS011;11029;47.820;10.534;2024-01-15T09:12:00;8.48;;;3.22;;
21733;SDS011;11029;47.820;10.534;2024-01-15T09:14:49;10.55;;;3.30;;
21733;SDS011;11029;47.820;10.534;2024-01-15T09:17:35;7.05;;;3.30;;
21733;SDS011;11029;47.820;10.534;2024-01-15T09:20:21;6.15;;;3.50;;
21733;SDS011;11029;47.820;10.534;2024-01-15T09:23:06;5.18;;;3.42;;
21733;SDS011;11029;47.820;10.534;2024-01-15T09:25:52;7.15;;;3.30;;
21733;SDS011;11029;47.820;10.534;2024-01-15T09:28:38;5.18;;;3.35;;
21733;SDS011;11029;47.820;10.534;2024-01-15T09:31:23;6.32;;;3.42;;
21733;SDS011;11029;47.820;10.534;2024-01-15T09:34:09;4.57;;;2.70;;
21733;SDS011;11029;47.820;10.534;2024-01-15T09:36:56;5.95;;;2.95;;
21733;SDS011;11029;47.820;10.534;2024-01-15T09:39:42;6.97;;;3.60;;
21733;SDS011;11029;47.820;10.534;2024-01-15T09:42:28;5.53;;;3.35;;
21733;SDS011;11029;47.820;10.534;2024-01-15T09:45:14;8.27;;;2.95;;
21733;SDS011;11029;47.820;10.534;2024-01-15T09:48:00;5.40;;;3.42;;
21733;SDS011;11029;47.820;10.534;2024-01-15T09:50:46;4.53;;;2.65;;
21733;SDS011;11029;47.820;10.534;2024-01-15T09:53:32;7.35;;;3.35;;
21733;SDS011;11029;47.820;10.534;2024-01-15T09:56:18;4.85;;;3.03;;
21733;SDS011;11029;47.820;10.534;2024-01-15T09:59:04;7.13;;;3.45;;
21733;SDS011;11029;47.820;10.534;2024-01-15T10:01:51;5.90;;;2.95;;
21733;SDS011;11029;47.820;10.534;2024-01-15T10:04:39;5.72;;;2.72;;
21733;SDS011;11029;47.820;10.534;2024-01-15T10:07:25;6.13;;;3.20;;
21733;SDS011;11029;47.820;10.534;2024-01-15T10:10:11;7.05;;;2.90;;
21733;SDS011;11029;47.820;10.534;2024-01-15T10:12:58;6.10;;;3.58;;
21733;SDS011;11029;47.820;10.534;2024-01-15T10:15:45;5.03;;;3.05;;
21733;SDS011;11029;47.820;10.534;2024-01-15T10:18:35;8.88;;;3.85;;
21733;SDS011;11029;47.820;10.534;2024-01-15T10:21:22;9.43;;;4.07;;
21733;SDS011;11029;47.820;10.534;2024-01-15T10:24:07;8.52;;;3.58;;
21733;SDS011;11029;47.820;10.534;2024-01-15T10:26:56;7.38;;;3.45;;
21733;SDS011;11029;47.820;10.534;2024-01-15T10:29:51;7.10;;;3.97;;
21733;SDS011;11029;47.820;10.534;2024-01-15T10:32:38;7.38;;;3.58;;
21733;SDS011;11029;47.820;10.534;2024-01-15T10:35:35;5.70;;;2.97;;
21733;SDS011;11029;47.820;10.534;2024-01-15T10:38:23;4.78;;;2.88;;
21733;SDS011;11029;47.820;10.534;2024-01-15T10:41:09;6.35;;;3.72;;
21733;SDS011;11029;47.820;10.534;2024-01-15T10:43:55;4.25;;;2.97;;
21733;SDS011;11029;47.820;10.534;2024-01-15T10:46:41;8.02;;;3.90;;
21733;SDS011;11029;47.820;10.534;2024-01-15T10:49:26;8.15;;;3.72;;
21733;SDS011;11029;47.820;10.534;2024-01-15T10:52:18;6.68;;;3.67;;
21733;SDS011;11029;47.820;10.534;2024-01-15T10:55:03;7.10;;;3.42;;
21733;SDS011;11029;47.820;10.534;2024-01-15T10:57:57;6.13;;;3.72;;
21733;SDS011;11029;47.820;10.534;2024-01-15T11:00:43;10.15;;;4.28;;
21733;SDS011;11029;47.820;10.534;2024-01-15T11:03:30;7.95;;;4.00;;
21733;SDS011;11029;47.820;10.534;2024-01-15T11:06:16;7.80;;;3.80;;
21733;SDS011;11029;47.820;10.534;2024-01-15T11:09:05;11.02;;;4.05;;
21733;SDS011;11029;47.820;10.534;2024-01-15T11:12:06;8.32;;;4.35;;
21733;SDS011;11029;47.820;10.534;2024-01-15T11:15:03;10.75;;;4.32;;
21733;SDS011;11029;47.820;10.534;2024-01-15T11:18:00;6.93;;;3.35;;
21733;SDS011;11029;47.820;10.534;2024-01-15T11:21:29;7.10;;;3.83;;
21733;SDS011;11029;47.820;10.534;2024-01-15T11:24:01;5.90;;;3.67;;
21733;SDS011;11029;47.820;10.534;2024-01-15T11:26:47;6.32;;;3.28;;
21733;SDS011;11029;47.820;10.534;2024-01-15T11:29:36;7.40;;;3.67;;
21733;SDS011;11029;47.820;10.534;2024-01-15T11:32:23;7.07;;;3.65;;
21733;SDS011;11029;47.820;10.534;2024-01-15T11:35:18;5.57;;;3.03;;
21733;SDS011;11029;47.820;10.534;2024-01-15T11:38:04;6.68;;;3.10;;
21733;SDS011;11029;47.820;10.534;2024-01-15T11:40:51;6.80;;;3.28;;
21733;SDS011;11029;47.820;10.534;2024-01-15T11:43:36;5.70;;;3.50;;
21733;SDS011;11029;47.820;10.534;2024-01-15T11:46:22;5.97;;;3.17;;
21733;SDS011;11029;47.820;10.534;2024-01-15T11:49:14;7.22;;;2.95;;
21733;SDS011;11029;47.820;10.534;2024-01-15T11:52:38;5.88;;;3.35;;
21733;SDS011;11029;47.820;10.534;2024-01-15T11:58:20;5.45;;;2.92;;
21733;SDS011;11029;47.820;10.534;2024-01-15T12:01:06;6.97;;;3.30;;
21733;SDS011;11029;47.820;10.534;2024-01-15T12:03:52;6.78;;;3.80;;
21733;SDS011;11029;47.820;10.534;2024-01-15T12:06:38;9.55;;;4.43;;
21733;SDS011;11029;47.820;10.534;2024-01-15T12:09:24;6.65;;;3.50;;
21733;SDS011;11029;47.820;10.534;2024-01-15T12:12:16;5.38;;;3.05;;
21733;SDS011;11029;47.820;10.534;2024-01-15T12:15:49;8.35;;;3.40;;
21733;SDS011;11029;47.820;10.534;2024-01-15T12:18:35;4.82;;;3.17;;
21733;SDS011;11029;47.820;10.534;2024-01-15T12:21:21;9.60;;;3.45;;
21733;SDS011;11029;47.820;10.534;2024-01-15T12:24:09;5.00;;;2.90;;
21733;SDS011;11029;47.820;10.534;2024-01-15T12:26:55;4.30;;;2.60;;
21733;SDS011;11029;47.820;10.534;2024-01-15T12:29:40;6.05;;;3.80;;
21733;SDS011;11029;47.820;10.534;2024-01-15T12:32:26;8.63;;;5.25;;
21733;SDS011;11029;47.820;10.534;2024-01-15T12:35:12;10.23;;;5.65;;
21733;SDS011;11029;47.820;10.534;2024-01-15T12:38:01;4.15;;;2.58;;
21733;SDS011;11029;47.820;10.534;2024-01-15T12:40:48;3.63;;;2.50;;
21733;SDS011;11029;47.820;10.534;2024-01-15T12:43:35;3.97;;;2.35;;
21733;SDS011;11029;47.820;10.534;2024-01-15T12:46:20;4.47;;;2.80;;
21733;SDS011;11029;47.820;10.534;2024-01-15T12:49:06;4.03;;;2.50;;
21733;SDS011;11029;47.820;10.534;2024-01-15T12:51:54;6.32;;;2.90;;
21733;SDS011;11029;47.820;10.534;2024-01-15T12:54:42;7.70;;;3.35;;
21733;SDS011;11029;47.820;10.534;2024-01-15T12:57:27;5.53;;;3.55;;
21733;SDS011;11029;47.820;10.534;2024-01-15T13:00:13;8.93;;;4.55;;
21733;SDS011;11029;47.820;10.534;2024-01-15T13:03:00;5.03;;;2.70;;
21733;SDS011;11029;47.820;10.534;2024-01-15T13:05:48;4.82;;;2.65;;
21733;SDS011;11029;47.820;10.534;2024-01-15T13:08:36;4.85;;;2.47;;
21733;SDS011;11029;47.820;10.534;2024-01-15T13:11:51;4.07;;;2.08;;
21733;SDS011;11029;47.820;10.534;2024-01-15T13:14:37;4.50;;;2.42;;
21733;SDS011;11029;47.820;10.534;2024-01-15T13:17:23;3.03;;;2.15;;
21733;SDS011;11029;47.820;10.534;2024-01-15T13:20:08;3.13;;;2.38;;
21733;SDS011;11029;47.820;10.534;2024-01-15T13:22:56;2.40;;;2.00;;
21733;SDS011;11029;47.820;10.534;2024-01-15T13:25:42;3.33;;;2.20;;
21733;SDS011;11029;47.820;10.534;2024-01-15T13:28:28;3.22;;;1.92;;
21733;SDS011;11029;47.820;10.534;2024-01-15T13:31:13;3.50;;;2.05;;
21733;SDS011;11029;47.820;10.534;2024-01-15T13:33:59;3.78;;;2.10;;
21733;SDS011;11029;47.820;10.534;2024-01-15T13:36:45;5.50;;;2.45;;
21733;SDS011;11029;47.820;10.534;2024-01-15T13:39:31;5.20;;;2.65;;
21733;SDS011;11029;47.820;10.534;2024-01-15T13:42:18;3.95;;;2.40;;
21733;SDS011;11029;47.820;10.534;2024-01-15T13:45:06;4.85;;;2.70;;
21733;SDS011;11029;47.820;10.534;2024-01-15T13:47:53;5.38;;;2.92;;
21733;SDS011;11029;47.820;10.534;2024-01-15T13:50:39;3.47;;;2.22;;
21733;SDS011;11029;47.820;10.534;2024-01-15T13:53:24;5.22;;;2.72;;
21733;SDS011;11029;47.820;10.534;2024-01-15T13:56:11;4.25;;;2.50;;
21733;SDS011;11029;47.820;10.534;2024-01-15T13:58:57;5.72;;;2.65;;
21733;SDS011;11029;47.820;10.534;2024-01-15T14:01:43;4.63;;;2.42;;
21733;SDS011;11029;47.820;10.534;2024-01-15T14:04:29;3.65;;;2.60;;
21733;SDS011;11029;47.820;10.534;2024-01-15T14:07:14;9.25;;;2.85;;
21733;SDS011;11029;47.820;10.534;2024-01-15T14:10:00;4.70;;;3.05;;
21733;SDS011;11029;47.820;10.534;2024-01-15T14:12:46;2.53;;;2.00;;
21733;SDS011;11029;47.820;10.534;2024-01-15T14:15:32;5.10;;;2.65;;
21733;SDS011;11029;47.820;10.534;2024-01-15T14:18:18;4.38;;;2.83;;
21733;SDS011;11029;47.820;10.534;2024-01-15T14:21:08;2.78;;;2.08;;
21733;SDS011;11029;47.820;10.534;2024-01-15T14:23:54;3.22;;;2.40;;
21733;SDS011;11029;47.820;10.534;2024-01-15T14:26:40;3.03;;;1.98;;
21733;SDS011;11029;47.820;10.534;2024-01-15T14:29:26;2.33;;;1.70;;
21733;SDS011;11029;47.820;10.534;2024-01-15T14:32:12;5.15;;;2.33;;
21733;SDS011;11029;47.820;10.534;2024-01-15T14:34:58;2.25;;;1.85;;
21733;SDS011;11029;47.820;10.534;2024-01-15T14:37:43;6.13;;;2.60;;
21733;SDS011;11029;47.820;10.534;2024-01-15T14:40:28;3.90;;;2.22;;
21733;SDS011;11029;47.820;10.534;2024-01-15T14:43:14;2.90;;;2.17;;
21733;SDS011;11029;47.820;10.534;2024-01-15T14:46:00;3.90;;;2.33;;
21733;SDS011;11029;47.820;10.534;2024-01-15T14:48:46;3.25;;;2.17;;
21733;SDS011;11029;47.820;10.534;2024-01-15T14:51:31;3.30;;;2.40;;
21733;SDS011;11029;47.820;10.534;2024-01-15T14:54:17;4.38;;;2.38;;
21733;SDS011;11029;47.820;10.534;2024-01-15T14:57:05;4.22;;;2.35;;
21733;SDS011;11029;47.820;10.534;2024-01-15T14:59:51;4.05;;;2.25;;
21733;SDS011;11029;47.820;10.534;2024-01-15T15:02:37;3.33;;;2.10;;
21733;SDS011;11029;47.820;10.534;2024-01-15T15:05:23;3.22;;;2.55;;
21733;SDS011;11029;47.820;10.534;2024-01-15T15:08:10;5.82;;;2.63;;
21733;SDS011;11029;47.820;10.534;2024-01-15T15:10:56;4.80;;;2.92;;
21733;SDS011;11029;47.820;10.534;2024-01-15T15:13:42;5.57;;;2.80;;
21733;SDS011;11029;47.820;10.534;2024-01-15T15:16:30;2.45;;;2.20;;
21733;SDS011;11029;47.820;10.534;2024-01-15T15:19:16;3.75;;;2.38;;
21733;SDS011;11029;47.820;10.534;2024-01-15T15:22:03;5.35;;;3.47;;
21733;SDS011;11029;47.820;10.534;2024-01-15T15:24:48;6.63;;;4.10;;
21733;SDS011;11029;47.820;10.534;2024-01-15T15:27:34;6.35;;;2.85;;
21733;SDS011;11029;47.820;10.534;2024-01-15T15:30:20;5.45;;;3.10;;
21733;SDS011;11029;47.820;10.534;2024-01-15T15:33:06;7.10;;;3.25;;
21733;SDS011;11029;47.820;10.534;2024-01-15T15:35:52;3.17;;;2.40;;
21733;SDS011;11029;47.820;10.534;2024-01-15T15:38:37;5.03;;;2.83;;
21733;SDS011;11029;47.820;10.534;2024-01-15T15:41:23;5.15;;;2.90;;
21733;SDS011;11029;47.820;10.534;2024-01-15T15:44:10;5.47;;;2.80;;
21733;SDS011;11029;47.820;10.534;2024-01-15T15:46:58;3.78;;;2.63;;
21733;SDS011;11029;47.820;10.534;2024-01-15T15:49:43;5.55;;;3.20;;
21733;SDS011;11029;47.820;10.534;2024-01-15T15:52:29;6.68;;;3.28;;
21733;SDS011;11029;47.820;10.534;2024-01-15T15:55:15;4.90;;;2.90;;
21733;SDS011;11029;47.820;10.534;2024-01-15T15:58:01;6.00;;;3.42;;
21733;SDS011;11029;47.820;10.534;2024-01-15T16:00:48;5.43;;;3.65;;
21733;SDS011;11029;47.820;10.534;2024-01-15T16:03:34;8.63;;;3.60;;
21733;SDS011;11029;47.820;10.534;2024-01-15T16:06:20;7.18;;;3.78;;
21733;SDS011;11029;47.820;10.534;2024-01-15T16:09:06;7.28;;;3.95;;
21733;SDS011;11029;47.820;10.534;2024-01-15T16:11:51;5.88;;;3.40;;
21733;SDS011;11029;47.820;10.534;2024-01-15T16:14:37;7.22;;;3.63;;
21733;SDS011;11029;47.820;10.534;2024-01-15T16:17:22;7.70;;;4.07;;
21733;SDS011;11029;47.820;10.534;2024-01-15T16:20:28;6.53;;;3.45;;
21733;SDS011;11029;47.820;10.534;2024-01-15T16:23:34;7.03;;;4.28;;
21733;SDS011;11029;47.820;10.534;2024-01-15T16:26:40;11.70;;;5.22;;
21733;SDS011;11029;47.820;10.534;2024-01-15T16:29:27;6.75;;;3.85;;